Time;durP1;ratioP1;P1;durP2;ratioP2;P2;SDS_P1;SDS_P2;PMS_P1;PMS_P2;Temp;Humidity;BMP_temperature;BMP_pressure;BME280_temperature;BME280_humidity;BME280_pressure;Samples;Min_cycle;Max_cycle;Signal;HPM_P1;HPM_P2
2022/06/18 00:02:01;;;;;;;3.65;1.10;;;24.40;47.00;23.20;101362.00;;;;5052124;28;20095;-72
2022/06/18 00:04:47;;;;;;;1.92;1.58;;;24.40;46.90;23.20;101367.00;;;;5068074;28;20102;-72
2022/06/18 00:07:33;;;;;;;1.70;1.38;;;24.40;47.00;23.20;101360.00;;;;5059463;28;20765;-72
2022/06/18 00:10:23;;;;;;;1.77;1.20;;;24.40;47.00;23.20;101359.00;;;;5052914;28;20037;-72
2022/06/18 00:16:20;;;;;;;1.38;1.08;;;24.40;47.00;23.20;101344.00;;;;5064701;28;20477;-72
2022/06/18 00:19:07;;;;;;;2.67;1.48;;;24.40;46.90;23.20;101350.00;;;;5050775;28;20040;-72
2022/06/18 00:21:53;;;;;;;1.38;1.10;;;24.40;46.90;23.20;101343.00;;;;5062305;28;20080;-72
2022/06/18 00:24:39;;;;;;;2.75;1.40;;;24.40;46.90;23.20;101344.00;;;;5058414;28;20459;-72
2022/06/18 00:27:25;;;;;;;1.30;1.20;;;24.40;46.90;23.20;101339.00;;;;5050931;28;20037;-72
2022/06/18 00:30:14;;;;;;;1.33;1.23;;;24.40;46.90;23.20;101337.00;;;;5067815;28;20048;-72
2022/06/18 00:33:00;;;;;;;1.98;1.15;;;24.40;46.90;23.20;101329.00;;;;5052503;28;20044;-72
2022/06/18 00:35:47;;;;;;;2.50;1.35;;;24.40;46.90;23.20;101334.00;;;;5067947;28;20717;-72
2022/06/18 00:38:37;;;;;;;2.03;1.40;;;24.40;47.00;23.20;101334.00;;;;5048421;28;20208;-72
2022/06/18 00:41:25;;;;;;;2.22;1.50;;;24.40;46.90;23.20;101330.00;;;;5035594;28;20043;-72
2022/06/18 00:44:24;;;;;;;1.50;1.20;;;24.40;46.90;23.20;101329.00;;;;5056177;28;20465;-72
2022/06/18 00:47:40;;;;;;;2.47;1.27;;;24.40;46.90;23.20;101332.00;;;;5051771;28;20052;-72
2022/06/18 00:50:50;;;;;;;1.73;1.30;;;24.40;47.00;23.20;101319.00;;;;5035790;28;20040;-72
2022/06/18 00:53:52;;;;;;;1.65;1.35;;;24.40;46.90;23.20;101319.00;;;;5055741;28;20028;-72
2022/06/18 00:57:08;;;;;;;1.70;1.42;;;24.40;47.00;23.20;101314.00;;;;5037683;28;20044;-72
2022/06/18 01:00:11;;;;;;;2.88;1.17;;;24.40;47.00;23.20;101315.00;;;;5007661;28;20133;-72
2022/06/18 01:02:57;;;;;;;1.55;1.30;;;24.40;47.00;23.20;101300.00;;;;5045235;28;20039;-72
2022/06/18 01:05:43;;;;;;;2.53;1.20;;;24.40;47.00;23.20;101308.00;;;;5066426;28;20040;-72
2022/06/18 01:08:30;;;;;;;1.85;1.40;;;24.40;47.00;23.20;101308.00;;;;5061946;28;20040;-72
2022/06/18 01:11:22;;;;;;;1.77;1.33;;;24.40;47.00;23.20;101302.00;;;;5053550;28;20303;-72
2022/06/18 01:14:09;;;;;;;2.55;1.38;;;24.40;47.10;23.20;101305.00;;;;5062664;28;20036;-72
2022/06/18 01:16:59;;;;;;;1.30;1.20;;;24.40;47.00;23.20;101301.00;;;;5047241;28;20076;-72
2022/06/18 01:19:47;;;;;;;2.10;1.40;;;24.40;47.00;23.20;101298.00;;;;5049116;28;20036;-72
2022/06/18 01:22:55;;;;;;;1.88;1.52;;;24.40;47.00;23.20;101306.00;;;;5044081;28;20037;-72
2022/06/18 01:25:41;;;;;;;1.33;1.23;;;24.40;47.10;23.20;101293.00;;;;5058279;28;20789;-72
2022/06/18 01:28:27;;;;;;;2.92;1.35;;;24.30;47.00;23.20;101292.00;;;;5048236;28;20500;-72
2022/06/18 01:31:13;;;;;;;2.05;1.38;;;24.40;47.00;23.20;101296.00;;;;5048306;28;20048;-72
2022/06/18 01:33:59;;;;;;;2.47;1.55;;;24.40;47.10;23.20;101289.00;;;;5061804;28;20528;-72
2022/06/18 01:36:45;;;;;;;3.22;1.50;;;24.40;47.10;23.20;101282.00;;;;5054867;28;20070;-72
2022/06/18 01:39:36;;;;;;;3.38;1.40;;;24.40;47.10;23.20;101282.00;;;;5034995;28;20041;-72
2022/06/18 01:42:27;;;;;;;2.83;1.63;;;24.40;47.00;23.20;101287.00;;;;5054231;28;20037;-72
2022/06/18 01:45:22;;;;;;;1.60;1.50;;;24.40;47.10;23.20;101277.00;;;;5050559;28;20036;-72
2022/06/18 01:48:18;;;;;;;3.28;1.30;;;24.40;47.10;23.20;101280.00;;;;5056807;28;20040;-72
2022/06/18 01:51:18;;;;;;;1.50;1.33;;;24.40;47.20;23.20;101280.00;;;;5052506;28;20397;-72
2022/06/18 01:54:12;;;;;;;1.80;1.65;;;24.40;47.20;23.20;101267.00;;;;5049934;28;20068;-72
2022/06/18 01:57:02;;;;;;;2.40;1.38;;;24.40;47.20;23.20;101273.00;;;;5036917;28;20044;-72
2022/06/18 02:00:12;;;;;;;4.32;1.70;;;24.40;47.20;23.20;101259.00;;;;5049629;28;20505;-72
2022/06/18 02:02:59;;;;;;;2.25;1.58;;;24.40;47.30;23.20;101271.00;;;;5036548;28;20032;-72
2022/06/18 02:05:45;;;;;;;5.22;1.20;;;24.40;47.20;23.20;101267.00;;;;5058134;28;20468;-72
2022/06/18 02:08:31;;;;;;;1.63;1.40;;;24.40;47.20;23.20;101265.00;;;;5055256;28;20040;-72
2022/06/18 02:11:18;;;;;;;2.13;1.60;;;24.40;47.30;23.20;101268.00;;;;5035671;28;20478;-72
2022/06/18 02:14:09;;;;;;;2.88;1.40;;;24.30;47.20;23.20;101270.00;;;;5045597;28;20130;-72
2022/06/18 02:16:55;;;;;;;2.45;1.77;;;24.40;47.30;23.20;101259.00;;;;5050152;28;20041;-72
2022/06/18 02:19:41;;;;;;;1.52;1.42;;;24.40;47.30;23.20;101258.00;;;;5051174;28;20032;-72
2022/06/18 02:22:43;;;;;;;3.08;1.70;;;24.40;47.30;23.20;101262.00;;;;5045334;28;20040;-72
2022/06/18 02:25:30;;;;;;;3.25;1.40;;;24.40;47.40;23.20;101262.00;;;;5048409;28;20044;-72
2022/06/18 02:28:39;;;;;;;2.65;1.58;;;24.40;47.40;23.20;101259.00;;;;5051105;28;20043;-72
2022/06/18 02:31:28;;;;;;;1.55;1.45;;;24.40;47.40;23.20;101257.00;;;;5048490;28;20119;-72
2022/06/18 02:34:18;;;;;;;1.58;1.48;;;24.40;47.40;23.20;101248.00;;;;5032123;28;20120;-72
2022/06/18 02:37:14;;;;;;;2.80;1.83;;;24.40;47.40;23.20;101248.00;;;;5045255;28;20041;-72
2022/06/18 02:40:02;;;;;;;2.15;1.75;;;24.40;47.40;23.20;101243.00;;;;5048324;28;20073;-72
2022/06/18 02:42:49;;;;;;;;;;;24.40;47.40;23.20;101241.00;;;;5050099;28;20048;-72
2022/06/18 02:45:35;;;;;;;5.35;1.85;;;24.40;47.20;23.20;101243.00;;;;5065295;28;19921;-72
2022/06/18 02:48:28;;;;;;;2.47;1.77;;;24.40;47.20;23.20;101252.00;;;;5046203;28;20032;-72
2022/06/18 02:51:14;;;;;;;2.42;2.00;;;24.40;47.20;23.20;101247.00;;;;5043327;28;20040;-72
2022/06/18 02:54:00;;;;;;;3.03;1.30;;;24.40;47.20;23.20;101245.00;;;;5064027;28;20047;-72
2022/06/18 02:56:47;;;;;;;2.53;1.95;;;24.40;47.30;23.20;101248.00;;;;5064672;28;20050;-72
2022/06/18 02:59:33;;;;;;;3.83;1.73;;;24.30;47.20;23.20;101255.00;;;;5050692;28;20036;-72
2022/06/18 03:02:19;;;;;;;3.47;1.42;;;24.40;47.30;23.20;101251.00;;;;5058911;28;20047;-72
2022/06/18 03:05:06;;;;;;;4.15;1.52;;;24.30;47.30;23.20;101249.00;;;;5067203;28;20043;-72
2022/06/18 03:07:52;;;;;;;1.50;1.40;;;24.30;47.30;23.20;101241.00;;;;5066051;28;20032;-72
2022/06/18 03:13:43;;;;;;;2.72;1.63;;;24.40;47.40;23.20;101250.00;;;;5053285;28;20033;-72
2022/06/18 03:16:30;;;;;;;2.92;1.70;;;24.40;48.10;23.20;101249.00;;;;5061433;28;20052;-72
2022/06/18 03:19:42;;;;;;;3.45;1.92;;;24.40;47.40;23.20;101253.00;;;;5059273;28;20041;-72
2022/06/18 03:22:28;;;;;;;2.70;1.50;;;24.30;47.40;23.20;101255.00;;;;5047262;28;20051;-72
2022/06/18 03:25:14;;;;;;;2.28;1.50;;;24.30;47.30;23.20;101250.00;;;;5060863;28;20440;-72
2022/06/18 03:28:00;;;;;;;3.03;1.80;;;24.30;47.40;23.20;101260.00;;;;5061099;28;20045;-72
2022/06/18 03:30:46;;;;;;;2.28;1.75;;;24.40;47.50;23.20;101265.00;;;;5049755;28;20370;-72
2022/06/18 03:33:32;;;;;;;2.90;1.70;;;24.30;47.40;23.20;101261.00;;;;5066883;28;20037;-72
2022/06/18 03:36:21;;;;;;;3.00;2.10;;;24.30;47.40;23.20;101265.00;;;;5060344;28;20040;-72
2022/06/18 03:39:09;;;;;;;2.63;1.73;;;24.30;47.50;23.20;101259.00;;;;5052733;28;20048;-72
2022/06/18 03:41:55;;;;;;;2.47;1.77;;;24.40;47.50;23.20;101266.00;;;;5048997;28;20078;-72
2022/06/18 03:44:41;;;;;;;2.85;1.73;;;24.40;47.50;23.20;101263.00;;;;5067919;28;20039;-72
2022/06/18 03:47:27;;;;;;;4.05;2.03;;;24.30;47.50;23.20;101263.00;;;;5059336;28;20045;-72
2022/06/18 03:50:20;;;;;;;3.25;1.90;;;24.30;47.50;23.20;101263.00;;;;5054322;28;20123;-72
2022/06/18 03:53:06;;;;;;;3.47;1.70;;;24.30;47.50;23.20;101263.00;;;;5045791;28;20069;-72
2022/06/18 03:55:52;;;;;;;1.77;1.52;;;24.30;47.40;23.20;101257.00;;;;5049038;28;20478;-72
2022/06/18 03:58:39;;;;;;;3.75;1.80;;;24.30;47.40;23.20;101263.00;;;;5054923;28;20039;-72
2022/06/18 04:01:28;;;;;;;1.80;1.70;;;24.40;47.60;23.20;101268.00;;;;5053479;28;20093;-72
2022/06/18 04:04:15;;;;;;;4.60;1.90;;;24.30;47.50;23.20;101271.00;;;;5071879;28;20040;-72
2022/06/18 04:07:01;;;;;;;3.95;1.85;;;24.30;47.50;23.20;101275.00;;;;5067614;28;20134;-72
2022/06/18 04:09:49;;;;;;;2.65;1.83;;;24.30;47.50;23.20;101269.00;;;;5057879;28;20036;-72
2022/06/18 04:12:35;;;;;;;2.38;1.63;;;24.30;47.50;23.20;101281.00;;;;5068599;28;20093;-72
2022/06/18 04:15:21;;;;;;;3.97;2.05;;;24.40;47.60;23.20;101279.00;;;;5068424;28;20278;-72
2022/06/18 04:18:08;;;;;;;1.95;1.80;;;24.30;47.50;23.20;101283.00;;;;5059409;28;20040;-72
2022/06/18 04:20:54;;;;;;;2.58;1.63;;;24.30;47.60;23.20;101289.00;;;;5057170;28;20493;-72
2022/06/18 04:23:40;;;;;;;1.80;1.52;;;24.30;47.60;23.20;101281.00;;;;5063934;28;20067;-72
2022/06/18 04:26:26;;;;;;;2.47;1.52;;;24.30;47.60;23.20;101282.00;;;;5063218;28;20040;-72
2022/06/18 04:29:12;;;;;;;3.97;1.52;;;24.30;47.60;23.20;101286.00;;;;5063773;28;20466;-72
2022/06/18 04:31:59;;;;;;;2.30;1.67;;;24.30;47.50;23.20;101291.00;;;;5065883;28;20075;-72
2022/06/18 04:34:46;;;;;;;3.23;1.70;;;24.30;47.60;23.20;101292.00;;;;5055379;28;20032;-72
2022/06/18 04:37:32;;;;;;;4.47;2.00;;;24.30;47.60;23.20;101293.00;;;;5053413;28;20291;-73
2022/06/18 04:40:31;;;;;;;3.47;1.77;;;24.30;47.70;23.20;101292.00;;;;5056200;28;20119;-73
2022/06/18 04:43:18;;;;;;;3.10;1.65;;;24.30;47.70;23.20;101292.00;;;;5036016;28;20274;-73
2022/06/18 04:46:04;;;;;;;2.55;1.77;;;24.30;47.70;23.20;101288.00;;;;5066436;28;20079;-72
2022/06/18 04:48:50;;;;;;;3.08;1.70;;;24.30;47.70;23.20;101288.00;;;;5063547;28;20036;-72
2022/06/18 04:51:36;;;;;;;1.70;1.60;;;24.40;47.80;23.20;101282.00;;;;5052866;28;20502;-73
2022/06/18 04:54:22;;;;;;;4.32;2.05;;;24.30;47.70;23.20;101274.00;;;;5072917;28;20040;-73
2022/06/18 04:57:08;;;;;;;2.60;1.88;;;24.30;47.70;23.20;101283.00;;;;5060152;28;20044;-72
2022/06/18 04:59:54;;;;;;;4.22;2.03;;;24.40;47.80;23.20;101291.00;;;;5053939;28;20044;-73
2022/06/18 05:02:40;;;;;;;3.45;1.80;;;24.30;47.70;23.20;101277.00;;;;5067313;28;20059;-73
2022/06/18 05:05:26;;;;;;;3.35;1.67;;;24.30;47.80;23.20;101284.00;;;;5051077;28;20045;-73
2022/06/18 05:08:13;;;;;;;1.98;1.60;;;24.30;47.80;23.20;101276.00;;;;5050099;28;20376;-73
2022/06/18 05:10:59;;;;;;;3.20;2.00;;;24.30;47.90;23.20;101279.00;;;;5066482;28;20131;-73
2022/06/18 05:13:45;;;;;;;1.65;1.55;;;24.30;47.90;23.20;101276.00;;;;5050911;28;20052;-72
2022/06/18 05:16:31;;;;;;;2.72;1.70;;;24.30;47.90;23.20;101275.00;;;;5067768;28;20117;-72
2022/06/18 05:19:27;;;;;;;2.85;1.70;;;24.30;48.00;23.20;101276.00;;;;5056724;28;20068;-72
2022/06/18 05:22:14;;;;;;;1.98;1.70;;;24.30;48.10;23.20;101272.00;;;;5061674;28;20046;-73
2022/06/18 05:25:00;;;;;;;3.15;2.00;;;24.20;48.00;23.20;101274.00;;;;5055822;28;20056;-72
2022/06/18 05:27:46;;;;;;;1.95;1.60;;;24.30;48.30;23.20;101284.00;;;;5065818;28;20037;-72
2022/06/18 05:30:33;;;;;;;6.95;1.90;;;24.30;48.40;23.20;101287.00;;;;5068842;28;20036;-73
2022/06/18 05:33:19;;;;;;;2.50;2.00;;;24.30;48.50;23.20;101287.00;;;;5049998;28;20045;-72
2022/06/18 05:36:25;;;;;;;4.20;1.55;;;24.30;48.60;23.20;101276.00;;;;5068685;28;20391;-73
2022/06/18 05:39:18;;;;;;;4.93;2.05;;;24.30;48.70;23.20;101279.00;;;;5052779;28;20047;-73
2022/06/18 05:42:04;;;;;;;2.42;1.70;;;24.30;48.90;23.20;101279.00;;;;5038646;28;20436;-72
2022/06/18 05:44:51;;;;;;;3.35;1.80;;;24.30;48.70;23.20;101279.00;;;;5067392;28;20036;-72
2022/06/18 05:47:37;;;;;;;2.92;2.10;;;24.30;48.70;23.20;101278.00;;;;5068180;28;20470;-72
2022/06/18 05:50:23;;;;;;;3.05;1.80;;;24.40;48.90;23.20;101276.00;;;;5065547;28;20048;-73
2022/06/18 05:53:09;;;;;;;3.28;2.00;;;24.40;48.90;23.20;101281.00;;;;5061043;28;20089;-72
2022/06/18 05:55:55;;;;;;;2.92;1.95;;;24.40;48.90;23.20;101284.00;;;;5063641;28;20406;-72
2022/06/18 05:58:41;;;;;;;2.03;1.75;;;24.30;49.00;23.20;101278.00;;;;5061133;28;20436;-72
2022/06/18 06:01:27;;;;;;;3.05;2.10;;;24.30;49.00;23.20;101269.00;;;;5061081;28;20052;-72
2022/06/18 06:04:16;;;;;;;4.28;2.40;;;24.30;49.00;23.20;101266.00;;;;5062326;28;20402;-72
2022/06/18 06:07:03;;;;;;;3.35;2.22;;;24.30;49.00;23.20;101270.00;;;;5057465;28;20328;-72
2022/06/18 06:12:54;;;;;;;5.80;2.63;;;24.30;49.30;23.20;101266.00;;;;5058007;28;20039;-72
2022/06/18 06:15:40;;;;;;;3.80;2.70;;;24.30;49.30;23.20;101265.00;;;;5064013;28;20055;-72
2022/06/18 06:18:27;;;;;;;6.78;3.13;;;24.40;49.50;23.20;101267.00;;;;5059986;28;20039;-73
2022/06/18 06:21:13;;;;;;;3.45;3.10;;;24.30;49.60;23.20;101270.00;;;;5062163;28;20477;-72
2022/06/18 06:23:59;;;;;;;4.13;3.30;;;24.30;49.80;23.20;101274.00;;;;5054507;28;20048;-72
2022/06/18 06:26:45;;;;;;;5.50;3.53;;;24.30;50.50;23.20;101263.00;;;;5062615;28;20044;-72
2022/06/18 06:29:32;;;;;;;5.55;3.28;;;24.30;50.20;23.20;101264.00;;;;5049428;28;20246;-72
2022/06/18 06:32:18;;;;;;;6.43;3.15;;;24.40;50.30;23.20;101274.00;;;;5046550;28;20064;-73
2022/06/18 06:35:05;;;;;;;4.78;3.20;;;24.30;50.40;23.20;101271.00;;;;5065051;28;20036;-73
2022/06/18 06:37:51;;;;;;;5.32;3.92;;;24.30;50.40;23.20;101270.00;;;;5063631;28;20444;-72
2022/06/18 06:40:37;;;;;;;6.40;3.83;;;24.30;50.60;23.20;101279.00;;;;5063164;28;20512;-73
2022/06/18 06:43:23;;;;;;;7.97;3.33;;;24.40;50.60;23.20;101281.00;;;;5063517;28;20044;-72
2022/06/18 06:46:13;;;;;;;6.95;3.50;;;24.30;50.60;23.20;101285.00;;;;5046211;28;20052;-72
2022/06/18 06:48:59;;;;;;;7.78;4.13;;;24.30;50.80;23.20;101277.00;;;;5054956;28;20615;-73
2022/06/18 06:51:45;;;;;;;6.03;3.40;;;24.40;50.80;23.20;101280.00;;;;5065571;28;20494;-73
2022/06/18 06:54:31;;;;;;;7.25;3.53;;;24.40;50.80;23.20;101273.00;;;;5063865;28;20510;-72
2022/06/18 06:57:23;;;;;;;4.18;3.45;;;24.40;50.80;23.20;101277.00;;;;5057283;28;20041;-72
2022/06/18 07:00:11;;;;;;;6.72;3.50;;;24.40;50.80;23.20;101278.00;;;;5061202;28;20178;-73
2022/06/18 07:02:57;;;;;;;6.75;3.60;;;24.40;51.00;23.20;101275.00;;;;5044522;28;20533;-72
2022/06/18 07:05:44;;;;;;;9.77;4.22;;;24.40;50.80;23.20;101273.00;;;;5051070;28;20505;-73
2022/06/18 07:08:30;;;;;;;4.93;3.45;;;24.40;50.90;23.20;101278.00;;;;5048723;28;20608;-72
2022/06/18 07:11:17;;;;;;;7.90;3.55;;;24.40;51.00;23.20;101280.00;;;;5043898;28;20037;-72
2022/06/18 07:14:03;;;;;;;6.63;4.57;;;24.40;51.00;23.20;101281.00;;;;5056236;28;20045;-72
2022/06/18 07:16:52;;;;;;;7.28;3.85;;;24.50;51.10;23.20;101284.00;;;;5058094;28;20040;-73
2022/06/18 07:19:38;;;;;;;6.88;3.92;;;24.40;51.20;23.20;101283.00;;;;5062086;28;20032;-71
2022/06/18 07:22:25;;;;;;;6.55;4.03;;;24.40;51.10;23.20;101281.00;;;;5061046;28;20040;-71
2022/06/18 07:25:12;;;;;;;5.90;3.93;;;24.40;51.20;23.20;101276.00;;;;5061857;28;20040;-71
2022/06/18 07:27:58;;;;;;;8.15;3.90;;;24.40;51.30;23.20;101280.00;;;;5064972;28;20048;-71
2022/06/18 07:30:46;;;;;;;7.63;3.83;;;24.40;51.20;23.20;101278.00;;;;5066085;28;20032;-70
2022/06/18 07:33:33;;;;;;;;;;;24.40;51.20;23.20;101274.00;;;;5056455;28;20048;-71
2022/06/18 07:36:19;;;;;;;6.00;3.75;;;24.40;50.70;23.20;101282.00;;;;5054118;28;19912;-71
2022/06/18 07:39:05;;;;;;;7.68;4.40;;;24.40;51.10;23.20;101279.00;;;;5066804;28;20032;-71
2022/06/18 07:41:54;;;;;;;7.93;3.92;;;24.40;51.20;23.20;101281.00;;;;5064964;28;20036;-71
2022/06/18 07:44:41;;;;;;;8.05;3.97;;;24.40;51.30;23.20;101282.00;;;;5067282;28;20102;-71
2022/06/18 07:47:27;;;;;;;5.38;4.10;;;24.40;51.30;23.20;101278.00;;;;5064830;28;20032;-71
2022/06/18 07:50:14;;;;;;;8.38;4.72;;;24.40;51.50;23.20;101275.00;;;;5068723;28;20051;-71
2022/06/18 07:53:00;;;;;;;7.25;3.85;;;24.40;51.60;23.20;101274.00;;;;5067883;28;20052;-71
2022/06/18 07:55:46;;;;;;;8.20;4.88;;;24.40;51.60;23.20;101270.00;;;;5069855;28;20541;-71
2022/06/18 07:58:32;;;;;;;6.63;4.30;;;24.40;51.60;23.30;101274.00;;;;5071563;28;20044;-71
2022/06/18 08:01:18;;;;;;;7.05;4.60;;;24.40;51.70;23.30;101277.00;;;;5063799;28;20474;-71
2022/06/18 08:04:05;;;;;;;7.00;4.22;;;24.40;51.80;23.20;101272.00;;;;5065125;28;20106;-71
2022/06/18 08:06:51;;;;;;;8.05;5.00;;;24.40;51.70;23.30;101273.00;;;;5051197;28;20044;-72
2022/06/18 08:09:38;;;;;;;9.88;5.05;;;24.40;51.90;23.30;101274.00;;;;5063624;28;20051;-72
2022/06/18 08:12:24;;;;;;;9.30;4.07;;;24.40;51.80;23.30;101268.00;;;;5064845;28;20090;-73
2022/06/18 08:15:10;;;;;;;7.97;4.82;;;24.40;51.70;23.30;101270.00;;;;5047853;28;20469;-72
2022/06/18 08:17:56;;;;;;;7.55;4.75;;;24.40;51.80;23.30;101266.00;;;;5065155;28;20048;-72
2022/06/18 08:20:42;;;;;;;6.30;4.18;;;24.40;51.90;23.30;101268.00;;;;5049906;28;20033;-73
2022/06/18 08:23:28;;;;;;;9.27;3.90;;;24.40;52.10;23.30;101271.00;;;;5068003;28;20124;-81
2022/06/18 08:26:14;;;;;;;5.50;4.03;;;24.40;52.00;23.30;101269.00;;;;5071759;28;20033;-73
2022/06/18 08:29:02;;;;;;;6.35;4.32;;;24.50;51.90;23.30;101270.00;;;;5057738;28;20052;-73
2022/06/18 08:31:48;;;;;;;;;;;24.50;52.10;23.30;101267.00;;;;5053080;28;20036;-73
2022/06/18 08:34:34;;;;;;;6.43;4.35;;;24.50;51.50;23.30;101266.00;;;;5063604;28;19913;-73
2022/06/18 08:37:20;;;;;;;6.60;4.20;;;24.50;51.70;23.30;101269.00;;;;5064673;28;20440;-73
2022/06/18 08:40:34;;;;;;;7.45;4.50;;;24.50;51.90;23.30;101269.00;;;;5052006;28;20032;-73
2022/06/18 08:44:13;;;;;;;6.93;4.32;;;24.40;51.90;23.30;101268.00;;;;5047657;28;20481;-73
2022/06/18 08:47:29;;;;;;;8.73;4.25;;;24.50;52.00;23.30;101261.00;;;;5063552;28;20048;-73
2022/06/18 08:50:48;;;;;;;15.25;4.53;;;24.50;52.30;23.20;101262.00;;;;5050921;28;20060;-73
2022/06/18 08:54:20;;;;;;;8.13;4.68;;;24.40;52.30;23.20;101267.00;;;;5048897;28;20032;-73
2022/06/18 08:57:32;;;;;;;6.65;4.35;;;24.40;52.30;23.30;101260.00;;;;5057160;28;20478;-73
2022/06/18 09:00:55;;;;;;;10.13;5.18;;;24.40;52.40;23.30;101259.00;;;;5063746;28;20040;-73
2022/06/18 09:04:06;;;;;;;9.48;4.38;;;24.40;52.30;23.30;101258.00;;;;5030684;28;20036;-73
2022/06/18 09:07:30;;;;;;;7.25;4.55;;;24.40;52.70;23.30;101267.00;;;;5049565;28;20037;-73
2022/06/18 09:10:53;;;;;;;5.07;4.38;;;24.50;52.30;23.30;101261.00;;;;5062739;28;20068;-75
2022/06/18 09:13:57;;;;;;;7.32;4.50;;;24.50;52.30;23.30;101267.00;;;;5062844;28;20090;-75
2022/06/18 09:17:23;;;;;;;8.55;4.13;;;24.50;52.30;23.30;101265.00;;;;5041006;28;20040;-74
2022/06/18 09:20:48;;;;;;;6.70;4.30;;;24.40;52.10;23.30;101265.00;;;;5066165;28;20051;-75
2022/06/18 09:24:04;;;;;;;6.47;4.03;;;24.50;52.40;23.30;101265.00;;;;5035761;28;20183;-75
2022/06/18 09:26:55;;;;;;;7.25;3.90;;;24.50;52.20;23.30;101260.00;;;;5061526;28;20067;-75
2022/06/18 09:30:05;;;;;;;5.32;3.85;;;24.50;51.90;23.30;101263.00;;;;5046367;28;20923;-75
2022/06/18 09:32:56;;;;;;;6.65;3.95;;;24.50;51.90;23.30;101266.00;;;;5055349;28;20501;-75
2022/06/18 09:36:01;;;;;;;5.35;3.40;;;24.50;52.00;23.30;101265.00;;;;5049559;28;20051;-75
2022/06/18 09:38:59;;;;;;;4.75;3.40;;;24.50;51.80;23.30;101252.00;;;;5050032;28;20527;-75
2022/06/18 09:42:09;;;;;;;6.07;3.58;;;24.50;51.50;23.30;101255.00;;;;5048751;28;20036;-75
2022/06/18 09:45:02;;;;;;;4.90;3.53;;;24.50;51.40;23.30;101269.00;;;;5047867;28;20036;-75
2022/06/18 09:47:48;;;;;;;6.18;3.55;;;24.50;51.30;23.30;101264.00;;;;5059862;28;20045;-76
2022/06/18 09:50:55;;;;;;;5.78;3.55;;;24.50;51.60;23.30;101266.00;;;;5051892;28;20059;-75
2022/06/18 09:53:41;;;;;;;5.55;3.63;;;24.50;51.50;23.30;101254.00;;;;5062236;28;20032;-75
2022/06/18 09:56:50;;;;;;;4.87;3.57;;;24.50;51.40;23.30;101253.00;;;;5058243;28;20051;-74
2022/06/18 10:00:10;;;;;;;6.53;3.53;;;24.60;51.20;23.30;101247.00;;;;5049594;28;20282;-75
2022/06/18 10:06:52;;;;;;;4.95;3.90;;;24.50;51.10;23.30;101255.00;;;;5057310;28;20041;-75
2022/06/18 10:09:59;;;;;;;4.22;3.08;;;24.50;50.90;23.30;101235.00;;;;5049243;28;20093;-75
2022/06/18 10:12:48;;;;;;;6.65;3.20;;;24.50;51.00;23.30;101241.00;;;;5047858;28;20059;-74
2022/06/18 10:15:34;;;;;;;4.25;3.20;;;24.50;51.00;23.30;101242.00;;;;5063072;28;20044;-73
2022/06/18 10:19:00;;;;;;;7.63;3.38;;;24.50;51.30;23.30;101236.00;;;;5039538;28;20537;-74
2022/06/18 10:21:53;;;;;;;4.05;3.00;;;24.50;51.20;23.30;101232.00;;;;5062432;28;20424;-73
2022/06/18 10:25:04;;;;;;;6.55;3.17;;;24.60;51.20;23.30;101241.00;;;;5050512;28;20063;-74
2022/06/18 10:28:21;;;;;;;5.07;3.25;;;24.50;51.30;23.30;101241.00;;;;5066664;28;20040;-73
2022/06/18 10:31:32;;;;;;;5.30;3.30;;;24.50;51.10;23.30;101233.00;;;;5053571;28;20042;-73
2022/06/18 10:34:51;;;;;;;5.70;3.50;;;24.60;51.30;23.30;101236.00;;;;5053562;28;20553;-73
2022/06/18 10:38:17;;;;;;;4.60;3.55;;;24.50;51.30;23.30;101246.00;;;;5041189;28;20043;-73
2022/06/18 10:41:31;;;;;;;5.63;3.33;;;24.60;51.60;23.30;101237.00;;;;5063745;28;20474;-74
2022/06/18 10:44:48;;;;;;;6.05;3.47;;;24.50;51.30;23.30;101240.00;;;;5059532;28;20058;-74
2022/06/18 10:47:37;;;;;;;7.05;3.58;;;24.60;51.50;23.30;101229.00;;;;5047511;28;20484;-73
2022/06/18 10:50:26;;;;;;;4.38;3.38;;;24.50;51.40;23.30;101232.00;;;;5034460;28;21395;-73
2022/06/18 10:53:14;;;;;;;6.18;3.50;;;24.60;51.50;23.40;101217.00;;;;5065457;28;20389;-73
2022/06/18 10:56:13;;;;;;;6.05;3.80;;;24.50;51.50;23.40;101225.00;;;;5055805;28;20109;-73
2022/06/18 10:59:01;;;;;;;5.25;3.28;;;24.50;51.60;23.40;101216.00;;;;5052683;28;20135;-74
2022/06/18 11:01:47;;;;;;;10.75;4.10;;;24.60;51.60;23.40;101217.00;;;;5059141;28;20036;-74
2022/06/18 11:04:33;;;;;;;6.07;3.25;;;24.50;51.70;23.40;101206.00;;;;5066823;28;20037;-73
2022/06/18 11:07:25;;;;;;;12.13;3.90;;;24.60;51.80;23.40;101212.00;;;;5045323;28;20044;-74
2022/06/18 11:10:43;;;;;;;6.32;3.40;;;24.60;51.70;23.40;101197.00;;;;5046896;28;20032;-74
2022/06/18 11:13:52;;;;;;;6.70;3.67;;;24.60;51.60;23.40;101197.00;;;;5040094;28;20036;-74
2022/06/18 11:16:44;;;;;;;9.13;3.35;;;24.60;51.60;23.40;101200.00;;;;5053688;28;20044;-74
2022/06/18 11:19:34;;;;;;;9.50;3.78;;;24.60;51.50;23.40;101212.00;;;;5062079;28;20161;-73
2022/06/18 11:22:29;;;;;;;14.05;4.85;;;24.60;51.40;23.40;101204.00;;;;5047775;28;20119;-74
2022/06/18 11:25:27;;;;;;;6.70;4.00;;;24.60;51.30;23.40;101208.00;;;;5054683;28;20040;-74
2022/06/18 11:28:23;;;;;;;9.57;4.30;;;24.60;53.20;23.60;101199.00;;;;5053740;28;20129;-74
2022/06/18 11:31:13;;;;;;;6.38;3.95;;;24.70;53.80;23.90;101196.00;;;;5055980;28;20025;-74
2022/06/18 11:34:07;;;;;;;9.43;4.22;;;24.70;53.50;24.00;101179.00;;;;5050082;28;20223;-74
2022/06/18 11:36:57;;;;;;;21.55;4.95;;;24.80;53.60;24.10;101176.00;;;;5062686;28;20238;-74
2022/06/18 11:39:56;;;;;;;9.27;4.32;;;25.00;53.30;24.10;101172.00;;;;5046864;28;20040;-74
2022/06/18 11:42:52;;;;;;;;;;;25.10;52.50;24.10;101175.00;;;;5049977;28;20727;-73
2022/06/18 11:45:54;;;;;;;7.00;3.83;;;25.20;52.10;24.10;101173.00;;;;5062098;28;19916;-73
2022/06/18 11:48:48;;;;;;;9.18;4.75;;;25.30;51.60;24.00;101177.00;;;;5036498;28;20464;-74
2022/06/18 11:51:46;;;;;;;9.13;4.18;;;25.30;51.50;24.00;101166.00;;;;5047811;28;20044;-73
2022/06/18 11:54:50;;;;;;;8.57;4.00;;;25.30;51.30;24.00;101160.00;;;;5033155;28;20052;-73
2022/06/18 11:57:46;;;;;;;12.15;3.90;;;25.30;51.20;23.90;101164.00;;;;5062817;28;20465;-73
2022/06/18 12:01:04;;;;;;;9.88;4.13;;;25.30;50.90;23.90;101167.00;;;;5035563;28;20037;-74
2022/06/18 12:03:59;;;;;;;7.53;4.55;;;25.30;51.20;23.90;101160.00;;;;5063966;28;20052;-74
2022/06/18 12:06:52;;;;;;;4.97;3.70;;;25.20;51.00;23.80;101149.00;;;;5048728;28;20040;-74
2022/06/18 12:09:40;;;;;;;8.70;4.22;;;25.20;51.00;23.80;101155.00;;;;5064743;28;20033;-74
2022/06/18 12:12:58;;;;;;;8.82;4.05;;;25.20;51.00;23.80;101144.00;;;;5053901;28;20387;-73
2022/06/18 12:16:18;;;;;;;7.78;4.00;;;25.20;50.90;23.80;101142.00;;;;5061149;28;20047;-73
2022/06/18 12:19:25;;;;;;;11.27;3.97;;;25.20;51.30;23.80;101136.00;;;;5050507;28;20109;-73
2022/06/18 12:22:44;;;;;;;9.25;4.13;;;25.10;50.90;23.70;101140.00;;;;5043395;28;20493;-74
2022/06/18 12:25:50;;;;;;;7.40;3.70;;;25.10;51.00;23.70;101139.00;;;;5064394;28;20044;-73
2022/06/18 12:29:10;;;;;;;6.47;3.70;;;25.10;50.90;23.70;101136.00;;;;5066341;28;20070;-73
2022/06/18 12:32:03;;;;;;;7.45;3.50;;;25.00;50.70;23.70;101136.00;;;;5060402;28;20487;-74
2022/06/18 12:35:15;;;;;;;7.55;3.40;;;25.10;50.80;23.70;101130.00;;;;5064489;28;20045;-73
2022/06/18 12:38:07;;;;;;;6.63;3.40;;;25.00;50.70;23.70;101133.00;;;;5066913;28;20058;-73
2022/06/18 12:41:12;;;;;;;10.00;4.25;;;25.00;50.70;23.70;101132.00;;;;5055689;28;20037;-73
2022/06/18 12:44:23;;;;;;;9.93;3.28;;;25.00;50.70;23.70;101131.00;;;;5073417;28;20316;-74
2022/06/18 12:47:21;;;;;;;4.82;3.53;;;25.00;50.50;23.70;101125.00;;;;5064988;28;20589;-74
2022/06/18 12:50:28;;;;;;;6.13;3.47;;;25.00;50.90;23.70;101127.00;;;;5066380;28;20032;-74
2022/06/18 12:53:38;;;;;;;5.82;3.72;;;25.00;51.00;23.70;101131.00;;;;5053684;28;20076;-73
2022/06/18 12:56:35;;;;;;;6.60;3.30;;;25.00;50.80;23.70;101124.00;;;;5065798;28;20098;-73